Time;durP1;ratioP1;P1;durP2;ratioP2;P2;SDS_P1;SDS_P2;PMS_P1;PMS_P2;Temp;Humidity;BMP_temperature;BMP_pressure;BME280_temperature;BME280_humidity;BME280_pressure;Samples;Min_cycle;Max_cycle;Signal;HPM_P1;HPM_P2
2023/12/22 00:01:23;;;;;;;;;;;24.40;96.20;;;;;;4966725;28;20297;-70
2023/12/22 00:03:50;;;;;;;;;;;24.50;96.10;;;;;;4964700;28;20437;-70
2023/12/22 00:06:16;;;;;;;;;;;24.60;95.70;;;;;;4968488;28;20001;-79
2023/12/22 00:08:43;;;;;;;;;;;24.60;96.30;;;;;;4967172;28;20018;-74
2023/12/22 00:11:10;;;;;;;;;;;24.80;96.40;;;;;;4971937;28;19921;-70
2023/12/22 00:13:36;;;;;;;;;;;25.00;95.40;;;;;;4989525;28;19920;-72
2023/12/22 00:16:03;;;;;;;;;;;25.00;95.30;;;;;;4979769;28;19992;-71
2023/12/22 00:18:30;;;;;;;;;;;25.00;94.90;;;;;;4961832;28;19918;-71
2023/12/22 00:20:57;;;;;;;;;;;24.90;95.10;;;;;;4958374;28;19921;-72
2023/12/22 00:23:24;;;;;;;;;;;24.90;94.90;;;;;;4969853;28;19922;-74
2023/12/22 00:25:50;;;;;;;;;;;24.80;94.80;;;;;;4971620;28;19948;-71
2023/12/22 00:28:17;;;;;;;;;;;24.70;95.20;;;;;;4971692;28;19917;-71
2023/12/22 00:30:43;;;;;;;;;;;24.80;95.30;;;;;;4969549;28;20272;-72
2023/12/22 00:33:10;;;;;;;;;;;24.80;94.40;;;;;;4969293;28;20020;-71
2023/12/22 00:35:37;;;;;;;;;;;24.60;94.60;;;;;;4967612;28;19910;-71
2023/12/22 00:38:04;;;;;;;;;;;24.70;94.60;;;;;;4969145;28;19984;-73
2023/12/22 00:40:31;;;;;;;;;;;24.60;94.40;;;;;;4970000;28;20348;-72
2023/12/22 00:42:57;;;;;;;;;;;24.60;95.20;;;;;;4970047;28;19921;-71
2023/12/22 00:45:24;;;;;;;;;;;24.60;95.20;;;;;;4971061;28;20275;-74
2023/12/22 00:47:50;;;;;;;;;;;24.70;94.60;;;;;;4971055;28;19914;-71
2023/12/22 00:50:17;;;;;;;;;;;24.80;95.00;;;;;;4970981;28;19918;-73
2023/12/22 00:52:44;;;;;;;;;;;24.70;94.80;;;;;;4970994;28;20333;-73
2023/12/22 00:55:10;;;;;;;;;;;24.70;94.80;;;;;;4971101;28;19914;-71
2023/12/22 00:57:37;;;;;;;;;;;24.60;94.70;;;;;;4971062;28;20012;-73
2023/12/22 01:00:05;;;;;;;;;;;24.60;94.60;;;;;;4971135;28;19911;-72
2023/12/22 01:02:32;;;;;;;;;;;24.70;94.60;;;;;;4970439;28;20013;-72
2023/12/22 01:04:58;;;;;;;;;;;24.80;94.60;;;;;;4970712;28;19976;-74
2023/12/22 01:07:25;;;;;;;;;;;25.00;94.00;;;;;;4970787;28;19917;-74
2023/12/22 01:09:52;;;;;;;;;;;25.10;94.20;;;;;;4970974;28;19917;-74
2023/12/22 01:12:18;;;;;;;;;;;25.20;94.60;;;;;;4969210;28;19940;-73
2023/12/22 01:14:45;;;;;;;;;;;25.30;94.10;;;;;;4970645;28;19922;-74
2023/12/22 01:17:12;;;;;;;;;;;25.40;93.90;;;;;;4970767;28;19911;-72
2023/12/22 01:19:39;;;;;;;;;;;25.50;93.90;;;;;;4971104;28;19917;-73
2023/12/22 01:22:05;;;;;;;;;;;25.60;93.50;;;;;;4970518;28;19922;-71
2023/12/22 01:24:32;;;;;;;;;;;25.60;93.70;;;;;;4971774;28;20426;-70
2023/12/22 01:26:59;;;;;;;;;;;25.60;92.70;;;;;;4974097;28;19964;-73
2023/12/22 01:29:26;;;;;;;;;;;25.50;92.50;;;;;;4972755;28;19921;-72
2023/12/22 01:31:52;;;;;;;;;;;25.50;92.40;;;;;;4973599;28;19925;-73
2023/12/22 01:34:19;;;;;;;;;;;25.50;92.10;;;;;;4973837;28;19969;-74
2023/12/22 01:36:45;;;;;;;;;;;25.50;92.00;;;;;;4974047;28;19918;-73
2023/12/22 01:39:12;;;;;;;;;;;25.40;92.30;;;;;;4974382;28;19910;-72
2023/12/22 01:41:39;;;;;;;;;;;25.50;91.60;;;;;;4973494;28;19914;-71
2023/12/22 01:44:05;;;;;;;;;;;25.70;91.90;;;;;;4973108;28;19914;-73
2023/12/22 01:46:33;;;;;;;;;;;25.90;91.00;;;;;;4972883;28;20347;-73
2023/12/22 01:49:03;;;;;;;;;;;26.00;91.30;;;;;;4973872;28;20379;-76
2023/12/22 01:51:31;;;;;;;;;;;26.10;90.60;;;;;;4973668;28;19910;-71
2023/12/22 01:53:58;;;;;;;;;;;26.30;89.40;;;;;;4973401;28;19922;-74
2023/12/22 01:56:25;;;;;;;;;;;26.40;88.90;;;;;;4973902;28;19918;-71
2023/12/22 01:58:53;;;;;;;;;;;26.40;88.80;;;;;;4973325;28;19928;-72
2023/12/22 02:01:20;;;;;;;;;;;26.50;89.10;;;;;;4973355;28;20260;-72
2023/12/22 02:03:52;;;;;;;;;;;26.50;89.40;;;;;;4973670;28;19960;-74
2023/12/22 02:06:19;;;;;;;;;;;26.50;89.60;;;;;;4973521;28;20267;-73
2023/12/22 02:08:48;;;;;;;;;;;26.30;89.70;;;;;;4973523;28;19936;-72
2023/12/22 02:11:15;;;;;;;;;;;26.50;90.10;;;;;;4973712;28;19950;-71
2023/12/22 02:13:44;;;;;;;;;;;26.40;90.00;;;;;;4972918;28;19926;-70
2023/12/22 02:16:28;;;;;;;;;;;26.20;90.10;;;;;;4973301;28;20282;-72
2023/12/22 02:18:56;;;;;;;;;;;26.10;89.20;;;;;;4973278;28;19914;-73
2023/12/22 02:21:23;;;;;;;;;;;26.30;90.20;;;;;;4972865;28;20009;-75
2023/12/22 02:23:49;;;;;;;;;;;26.30;89.40;;;;;;4954136;28;19914;-73
2023/12/22 02:26:36;;;;;;;;;;;26.30;90.00;;;;;;4963923;28;19914;-72
2023/12/22 02:29:03;;;;;;;;;;;26.30;90.00;;;;;;4973035;28;20275;-71
2023/12/22 02:31:44;;;;;;;;;;;26.40;87.30;;;;;;4972513;28;19911;-73
2023/12/22 02:34:13;;;;;;;;;;;26.50;87.40;;;;;;4953943;28;20261;-74
2023/12/22 02:36:41;;;;;;;;;;;26.70;87.10;;;;;;4953637;28;20020;-76
2023/12/22 02:39:09;;;;;;;;;;;26.80;85.30;;;;;;4954010;28;19914;-71
2023/12/22 02:41:36;;;;;;;;;;;27.00;85.50;;;;;;4955713;28;19972;-72
2023/12/22 02:44:07;;;;;;;;;;;27.10;87.40;;;;;;4972773;28;19933;-74
2023/12/22 02:46:37;;;;;;;;;;;27.20;87.00;;;;;;4971567;28;19917;-71
2023/12/22 02:49:08;;;;;;;;;;;27.20;85.00;;;;;;4972772;28;19917;-71
2023/12/22 02:51:35;;;;;;;;;;;27.30;85.40;;;;;;4954709;28;19972;-72
2023/12/22 02:54:02;;;;;;;;;;;27.60;83.50;;;;;;4953130;28;20436;-72
2023/12/22 02:56:29;;;;;;;;;;;27.90;87.30;;;;;;4964452;28;20006;-72
2023/12/22 02:58:56;;;;;;;;;;;28.30;84.20;;;;;;4972179;28;19914;-75
2023/12/22 03:01:23;;;;;;;;;;;28.30;82.40;;;;;;4974020;28;19917;-74
2023/12/22 03:03:50;;;;;;;;;;;28.70;84.70;;;;;;4953005;28;19921;-71
2023/12/22 03:06:21;;;;;;;;;;;29.50;83.00;;;;;;4953373;28;19915;-72
2023/12/22 03:08:47;;;;;;;;;;;29.80;80.60;;;;;;4953364;28;19910;-73
2023/12/22 03:11:14;;;;;;;;;;;30.10;80.80;;;;;;4967739;28;19914;-74
2023/12/22 03:13:41;;;;;;;;;;;30.60;82.10;;;;;;4954133;28;19929;-75
2023/12/22 03:16:11;;;;;;;;;;;31.10;76.30;;;;;;4953144;28;20351;-74
2023/12/22 03:18:41;;;;;;;;;;;31.40;76.60;;;;;;4953126;28;19956;-72
2023/12/22 03:21:07;;;;;;;;;;;31.60;75.90;;;;;;4952999;28;19911;-72
2023/12/22 03:23:34;;;;;;;;;;;31.90;75.70;;;;;;4967163;28;20290;-72
2023/12/22 03:26:03;;;;;;;;;;;32.50;75.80;;;;;;4972542;28;19911;-71
2023/12/22 03:28:33;;;;;;;;;;;33.10;71.50;;;;;;4972360;28;19910;-74
2023/12/22 03:31:04;;;;;;;;;;;33.20;70.50;;;;;;4972019;28;19955;-75
2023/12/22 03:33:31;;;;;;;;;;;33.10;69.90;;;;;;4956910;28;19984;-72
2023/12/22 03:35:57;;;;;;;;;;;33.50;69.80;;;;;;4952909;28;20355;-71
2023/12/22 03:38:25;;;;;;;;;;;33.90;68.90;;;;;;4953036;28;19911;-72
2023/12/22 03:40:51;;;;;;;;;;;34.30;68.50;;;;;;4963349;28;19918;-72
2023/12/22 03:43:18;;;;;;;;;;;34.40;67.10;;;;;;4958759;28;19918;-73
2023/12/22 03:45:48;;;;;;;;;;;35.00;65.80;;;;;;4959063;28;19918;-72
2023/12/22 03:48:15;;;;;;;;;;;35.00;63.60;;;;;;4971198;28;19930;-72
2023/12/22 03:50:42;;;;;;;;;;;35.20;63.90;;;;;;4959701;28;19922;-71
2023/12/22 03:53:09;;;;;;;;;;;35.10;63.20;;;;;;4963738;28;19925;-72
2023/12/22 03:55:35;;;;;;;;;;;35.00;63.80;;;;;;4971919;28;20005;-73
2023/12/22 03:58:07;;;;;;;;;;;34.60;64.10;;;;;;4971824;28;19914;-72
2023/12/22 04:00:35;;;;;;;;;;;34.80;64.80;;;;;;4960470;28;19915;-72
2023/12/22 04:03:01;;;;;;;;;;;35.40;62.70;;;;;;4962345;28;19914;-74
2023/12/22 04:05:28;;;;;;;;;;;35.10;62.90;;;;;;4970509;28;19918;-72
2023/12/22 04:07:55;;;;;;;;;;;34.60;62.80;;;;;;4971936;28;19932;-75
2023/12/22 04:10:22;;;;;;;;;;;34.60;64.20;;;;;;4970605;28;19914;-73
2023/12/22 04:12:48;;;;;;;;;;;34.60;64.00;;;;;;4962543;28;19921;-74
2023/12/22 04:15:19;;;;;;;;;;;34.50;63.50;;;;;;4952122;28;19915;-74
2023/12/22 04:17:46;;;;;;;;;;;34.30;64.30;;;;;;4952306;28;19911;-74
2023/12/22 04:20:13;;;;;;;;;;;34.10;64.20;;;;;;4958199;28;19914;-75
2023/12/22 04:22:40;;;;;;;;;;;34.50;64.50;;;;;;4964035;28;19922;-73
2023/12/22 04:25:07;;;;;;;;;;;34.00;65.90;;;;;;4950699;28;20283;-74
2023/12/22 04:27:34;;;;;;;;;;;34.10;65.50;;;;;;4952326;28;19910;-70
2023/12/22 04:30:01;;;;;;;;;;;34.10;65.90;;;;;;4952171;28;19907;-73
2023/12/22 04:32:28;;;;;;;;;;;33.60;66.20;;;;;;4953149;28;19921;-74
2023/12/22 04:34:54;;;;;;;;;;;33.60;66.60;;;;;;4952146;28;20240;-71
2023/12/22 04:37:21;;;;;;;;;;;34.20;65.60;;;;;;4952006;28;20260;-72
2023/12/22 04:39:48;;;;;;;;;;;34.90;65.00;;;;;;4950835;28;20291;-73
2023/12/22 04:42:14;;;;;;;;;;;35.10;64.30;;;;;;4955104;28;19914;-73
2023/12/22 04:44:41;;;;;;;;;;;34.90;64.40;;;;;;4971046;28;19918;-71
2023/12/22 04:47:08;;;;;;;;;;;34.90;62.90;;;;;;4970643;28;19993;-74
2023/12/22 04:49:34;;;;;;;;;;;34.70;64.70;;;;;;4951649;28;20001;-71
2023/12/22 04:52:01;;;;;;;;;;;34.90;64.40;;;;;;4952624;28;19911;-70
2023/12/22 04:54:28;;;;;;;;;;;34.70;65.70;;;;;;4970869;28;19961;-75
2023/12/22 04:56:54;;;;;;;;;;;34.80;65.50;;;;;;4971216;28;19932;-72
2023/12/22 04:59:21;;;;;;;;;;;34.90;66.80;;;;;;4971825;28;19957;-73
2023/12/22 05:01:47;;;;;;;;;;;35.10;65.90;;;;;;4974376;28;20009;-73
2023/12/22 05:04:14;;;;;;;;;;;35.00;66.50;;;;;;4974597;28;19910;-71
2023/12/22 05:06:41;;;;;;;;;;;35.50;65.60;;;;;;4974620;28;19963;-73
2023/12/22 05:09:07;;;;;;;;;;;35.30;65.60;;;;;;4964285;28;20009;-71
2023/12/22 05:11:35;;;;;;;;;;;35.20;65.70;;;;;;4954951;28;19949;-73
2023/12/22 05:14:01;;;;;;;;;;;34.90;66.40;;;;;;4953844;28;19918;-71
2023/12/22 05:16:30;;;;;;;;;;;34.90;66.20;;;;;;4967157;28;19914;-72
2023/12/22 05:18:57;;;;;;;;;;;35.10;67.10;;;;;;4965570;28;20347;-72
2023/12/22 05:21:24;;;;;;;;;;;35.30;65.10;;;;;;4954744;28;20292;-72
2023/12/22 05:23:51;;;;;;;;;;;35.50;67.20;;;;;;4967476;28;19954;-72
2023/12/22 05:26:18;;;;;;;;;;;35.70;65.60;;;;;;4973986;28;19993;-72
2023/12/22 05:28:45;;;;;;;;;;;35.50;64.70;;;;;;4967386;28;20372;-71
2023/12/22 05:31:12;;;;;;;;;;;35.00;65.40;;;;;;4954575;28;19914;-71
2023/12/22 05:33:38;;;;;;;;;;;34.90;65.80;;;;;;4971639;28;19930;-74
2023/12/22 05:36:05;;;;;;;;;;;34.60;66.70;;;;;;4972961;28;19911;-71
2023/12/22 05:38:32;;;;;;;;;;;34.10;67.40;;;;;;4969519;28;19914;-71
2023/12/22 05:40:58;;;;;;;;;;;33.70;67.50;;;;;;4986397;28;20075;-72
2023/12/22 05:43:26;;;;;;;;;;;33.40;69.00;;;;;;4965312;28;19925;-67
2023/12/22 05:45:52;;;;;;;;;;;33.00;69.00;;;;;;4963772;28;19925;-69
2023/12/22 05:48:21;;;;;;;;;;;32.70;71.10;;;;;;4968505;28;19920;-74
2023/12/22 05:50:48;;;;;;;;;;;32.50;69.50;;;;;;4956536;28;19917;-72
2023/12/22 05:53:15;;;;;;;;;;;31.90;69.60;;;;;;4968281;28;20270;-71
2023/12/22 05:55:41;;;;;;;;;;;31.30;71.20;;;;;;5036646;28;19921;-71
2023/12/22 05:58:08;;;;;;;;;;;30.80;71.40;;;;;;4970142;28;19936;-73
2023/12/22 06:00:35;;;;;;;;;;;30.30;72.10;;;;;;5012748;28;20300;-72
2023/12/22 06:03:02;;;;;;;;;;;29.80;74.00;;;;;;4978749;28;19999;-70
2023/12/22 06:05:28;;;;;;;;;;;29.60;75.00;;;;;;4977514;28;19914;-70
2023/12/22 06:07:55;;;;;;;;;;;29.10;76.60;;;;;;4985035;28;19918;-70
2023/12/22 06:10:21;;;;;;;;;;;29.00;76.10;;;;;;4981911;28;20338;-69
2023/12/22 06:12:48;;;;;;;;;;;28.90;76.10;;;;;;4975137;28;19914;-69
2023/12/22 06:15:15;;;;;;;;;;;28.70;77.00;;;;;;4972340;28;20283;-71
2023/12/22 06:17:41;;;;;;;;;;;28.60;75.90;;;;;;4964118;28;19957;-74
2023/12/22 06:20:08;;;;;;;;;;;28.40;76.60;;;;;;4968585;28;19971;-77
2023/12/22 06:22:35;;;;;;;;;;;28.40;77.40;;;;;;4963463;28;19984;-78
2023/12/22 06:25:07;;;;;;;;;;;28.20;78.40;;;;;;4963689;28;19914;-68
2023/12/22 06:27:34;;;;;;;;;;;28.20;79.30;;;;;;4965957;28;20270;-69
2023/12/22 06:30:00;;;;;;;;;;;28.20;79.30;;;;;;4966614;28;19918;-71
2023/12/22 06:32:27;;;;;;;;;;;28.20;79.10;;;;;;4977299;28;20363;-71
2023/12/22 06:34:54;;;;;;;;;;;28.00;79.20;;;;;;4966228;28;19958;-73
2023/12/22 06:37:20;;;;;;;;;;;28.00;79.80;;;;;;4974095;28;20009;-80
2023/12/22 06:39:47;;;;;;;;;;;28.00;79.80;;;;;;4965491;28;19958;-70
2023/12/22 06:42:13;;;;;;;;;;;28.10;79.10;;;;;;4957832;28;20256;-72
2023/12/22 06:44:46;;;;;;;;;;;27.90;78.80;;;;;;4968016;28;19929;-72
2023/12/22 06:47:12;;;;;;;;;;;27.70;80.10;;;;;;4968467;28;19964;-71
2023/12/22 06:49:39;;;;;;;;;;;27.40;80.70;;;;;;4964851;28;20350;-72
2023/12/22 06:52:05;;;;;;;;;;;27.20;82.20;;;;;;4964262;28;19918;-74
2023/12/22 06:54:33;;;;;;;;;;;27.10;82.30;;;;;;4965366;28;19922;-72
2023/12/22 06:57:00;;;;;;;;;;;27.20;81.60;;;;;;4962155;28;20371;-73
2023/12/22 06:59:27;;;;;;;;;;;27.30;80.10;;;;;;4962124;28;20389;-69
2023/12/22 07:01:55;;;;;;;;;;;27.10;80.30;;;;;;4961834;28;20001;-70
2023/12/22 07:04:22;;;;;;;;;;;26.90;80.20;;;;;;4986461;28;19980;-70
2023/12/22 07:06:48;;;;;;;;;;;26.90;79.90;;;;;;4974783;28;19977;-70
2023/12/22 07:09:16;;;;;;;;;;;26.70;79.00;;;;;;4966971;28;19914;-69
2023/12/22 07:11:43;;;;;;;;;;;26.80;80.10;;;;;;4962955;28;19914;-68
2023/12/22 07:14:10;;;;;;;;;;;26.80;79.90;;;;;;4961277;28;20375;-69
2023/12/22 07:16:36;;;;;;;;;;;26.60;80.10;;;;;;4974501;28;19915;-70
2023/12/22 07:19:03;;;;;;;;;;;26.40;81.40;;;;;;4965275;28;19914;-70
2023/12/22 07:21:30;;;;;;;;;;;26.30;82.60;;;;;;4961622;28;19917;-69
2023/12/22 07:23:58;;;;;;;;;;;26.30;83.60;;;;;;4961643;28;20005;-69
2023/12/22 07:26:26;;;;;;;;;;;26.30;82.60;;;;;;4961751;28;19923;-70
2023/12/22 07:28:53;;;;;;;;;;;26.40;82.40;;;;;;4965557;28;19929;-70
2023/12/22 07:31:20;;;;;;;;;;;26.30;83.20;;;;;;4968312;28;19983;-68
2023/12/22 07:33:47;;;;;;;;;;;26.30;83.00;;;;;;4962767;28;19925;-69
2023/12/22 07:36:13;;;;;;;;;;;26.10;82.00;;;;;;4962949;28;19937;-69
2023/12/22 07:38:40;;;;;;;;;;;26.00;82.90;;;;;;4961565;28;20352;-69
2023/12/22 07:41:07;;;;;;;;;;;25.80;84.70;;;;;;4958650;28;20007;-70
2023/12/22 07:43:33;;;;;;;;;;;25.80;86.00;;;;;;4962458;28;19921;-69
2023/12/22 07:46:00;;;;;;;;;;;25.70;86.80;;;;;;4961706;28;20009;-70
2023/12/22 07:48:27;;;;;;;;;;;25.60;86.90;;;;;;4962374;28;19932;-68
2023/12/22 07:50:53;;;;;;;;;;;25.50;86.50;;;;;;4971076;28;19921;-70
2023/12/22 07:53:21;;;;;;;;;;;25.30;86.60;;;;;;4958891;28;19919;-69
2023/12/22 07:55:47;;;;;;;;;;;25.10;87.40;;;;;;4964072;28;19985;-69
2023/12/22 07:58:14;;;;;;;;;;;25.00;88.60;;;;;;4962849;28;19965;-69
2023/12/22 08:00:41;;;;;;;;;;;24.90;89.20;;;;;;4961277;28;19914;-68
2023/12/22 08:03:07;;;;;;;;;;;24.80;90.00;;;;;;4961461;28;19925;-68
2023/12/22 08:05:34;;;;;;;;;;;24.80;90.20;;;;;;4965066;28;19910;-71
2023/12/22 08:08:01;;;;;;;;;;;24.70;90.40;;;;;;4964489;28;19967;-70
2023/12/22 08:10:27;;;;;;;;;;;24.60;91.00;;;;;;4962164;28;19919;-69
2023/12/22 08:12:54;;;;;;;;;;;24.50;91.40;;;;;;4962589;28;19910;-67
2023/12/22 08:15:20;;;;;;;;;;;24.30;92.00;;;;;;4963750;28;20004;-69
2023/12/22 08:17:48;;;;;;;;;;;24.40;92.50;;;;;;4964689;28;20400;-69
2023/12/22 08:20:19;;;;;;;;;;;24.20;92.20;;;;;;4961614;28;19937;-68
2023/12/22 08:22:49;;;;;;;;;;;24.00;92.80;;;;;;4963176;28;19975;-70
2023/12/22 08:25:20;;;;;;;;;;;23.90;93.20;;;;;;4960785;28;20137;-68
2023/12/22 08:27:47;;;;;;;;;;;23.80;93.80;;;;;;4984524;28;19924;-71
2023/12/22 08:30:14;;;;;;;;;;;23.70;93.90;;;;;;4964505;28;19921;-70
2023/12/22 08:32:41;;;;;;;;;;;23.60;93.90;;;;;;4957447;28;19914;-69
2023/12/22 08:35:08;;;;;;;;;;;23.60;94.40;;;;;;4962671;28;19969;-68
2023/12/22 08:37:34;;;;;;;;;;;23.50;94.40;;;;;;4969587;28;19968;-69
2023/12/22 08:40:01;;;;;;;;;;;23.50;94.70;;;;;;4963328;28;19998;-69
2023/12/22 08:42:30;;;;;;;;;;;23.40;94.90;;;;;;4957833;28;19914;-69
2023/12/22 08:44:57;;;;;;;;;;;23.30;94.90;;;;;;4960675;28;20630;-72
2023/12/22 08:47:23;;;;;;;;;;;23.30;94.80;;;;;;4961127;28;19910;-69
2023/12/22 08:49:50;;;;;;;;;;;23.30;94.80;;;;;;4986813;28;20007;-69
2023/12/22 08:52:17;;;;;;;;;;;23.20;94.80;;;;;;4958419;28;20273;-69
2023/12/22 08:54:43;;;;;;;;;;;23.20;95.20;;;;;;4965911;28;19920;-69
2023/12/22 08:57:11;;;;;;;;;;;23.10;95.60;;;;;;4961414;28;19951;-69
2023/12/22 08:59:37;;;;;;;;;;;23.10;96.00;;;;;;4969273;28;20001;-69
2023/12/22 09:02:05;;;;;;;;;;;23.10;96.20;;;;;;4961520;28;20000;-70
2023/12/22 09:04:32;;;;;;;;;;;23.00;96.50;;;;;;4961857;28;19933;-70
2023/12/22 09:06:59;;;;;;;;;;;23.00;96.60;;;;;;4967652;28;19914;-69
2023/12/22 09:09:27;;;;;;;;;;;22.90;96.90;;;;;;4968817;28;20012;-73
2023/12/22 09:11:54;;;;;;;;;;;22.80;97.00;;;;;;4969305;28;19954;-73
2023/12/22 09:14:21;;;;;;;;;;;22.80;97.40;;;;;;4970103;28;19970;-71
2023/12/22 09:16:47;;;;;;;;;;;22.70;97.60;;;;;;4969968;28;19960;-70
2023/12/22 09:19:14;;;;;;;;;;;22.70;98.40;;;;;;4993365;28;19973;-74
2023/12/22 09:21:44;;;;;;;;;;;22.60;98.40;;;;;;5071269;28;19912;-70
2023/12/22 09:24:12;;;;;;;;;;;22.60;98.80;;;;;;4968277;28;19925;-71
2023/12/22 09:26:39;;;;;;;;;;;22.40;99.10;;;;;;4950718;28;19917;-73
2023/12/22 09:29:06;;;;;;;;;;;22.40;99.10;;;;;;4962860;28;19925;-70
2023/12/22 09:31:32;;;;;;;;;;;22.40;99.30;;;;;;4950509;28;19911;-70
2023/12/22 09:33:59;;;;;;;;;;;22.30;99.50;;;;;;4968375;28;19926;-69
2023/12/22 09:36:25;;;;;;;;;;;22.30;99.40;;;;;;4969937;28;19914;-72
2023/12/22 09:38:52;;;;;;;;;;;22.30;99.60;;;;;;4969419;28;20022;-71
2023/12/22 09:41:19;;;;;;;;;;;22.30;99.90;;;;;;4967969;28;19932;-72
2023/12/22 09:43:50;;;;;;;;;;;22.30;99.90;;;;;;4956895;28;20177;-71
2023/12/22 09:46:18;;;;;;;;;;;22.30;99.90;;;;;;4970286;28;19997;-69
2023/12/22 09:48:45;;;;;;;;;;;22.30;99.90;;;;;;4972702;28;19946;-70
2023/12/22 09:51:12;;;;;;;;;;;22.30;99.90;;;;;;4973135;28;19910;-70
2023/12/22 09:53:40;;;;;;;;;;;22.30;99.90;;;;;;4967673;28;20363;-74
2023/12/22 09:56:07;;;;;;;;;;;22.30;99.90;;;;;;4973242;28;19953;-74
2023/12/22 09:58:35;;;;;;;;;;;22.20;99.90;;;;;;4972694;28;19914;-72
2023/12/22 10:01:05;;;;;;;;;;;22.20;99.90;;;;;;4973166;28;19910;-72
2023/12/22 10:03:33;;;;;;;;;;;22.10;99.90;;;;;;4967014;28;19915;-73
2023/12/22 10:06:00;;;;;;;;;;;22.20;99.90;;;;;;4972647;28;19910;-73
2023/12/22 10:08:27;;;;;;;;;;;22.20;99.90;;;;;;4972213;28;19914;-71
2023/12/22 10:10:54;;;;;;;;;;;22.20;99.90;;;;;;4971340;28;19910;-73
2023/12/22 10:13:21;;;;;;;;;;;22.20;99.90;;;;;;4968243;28;19922;-71
2023/12/22 10:15:48;;;;;;;;;;;22.20;99.90;;;;;;4972722;28;19910;-74
2023/12/22 10:18:15;;;;;;;;;;;22.30;99.90;;;;;;4972569;28;19921;-72
2023/12/22 10:20:42;;;;;;;;;;;22.20;99.90;;;;;;4972175;28;19914;-71
2023/12/22 10:23:09;;;;;;;;;;;22.20;99.90;;;;;;4972002;28;19922;-70
2023/12/22 10:25:36;;;;;;;;;;;22.20;99.90;;;;;;5013955;28;20369;-74
2023/12/22 10:28:03;;;;;;;;;;;22.20;99.90;;;;;;5034140;28;19914;-69
2023/12/22 10:30:29;;;;;;;;;;;22.20;99.90;;;;;;4973006;28;19914;-72
2023/12/22 10:32:56;;;;;;;;;;;22.20;99.90;;;;;;4970961;28;19917;-73
2023/12/22 10:35:23;;;;;;;;;;;22.20;99.90;;;;;;4989470;28;19967;-72
2023/12/22 10:37:53;;;;;;;;;;;22.20;99.90;;;;;;4981503;28;20354;-70
2023/12/22 10:40:20;;;;;;;;;;;22.20;99.90;;;;;;4973817;28;19910;-72
2023/12/22 10:42:47;;;;;;;;;;;22.20;99.90;;;;;;4971755;28;19914;-71
2023/12/22 10:45:13;;;;;;;;;;;22.10;99.90;;;;;;4971558;28;19910;-69
2023/12/22 10:47:40;;;;;;;;;;;22.00;99.90;;;;;;4971925;28;19937;-71
2023/12/22 10:50:07;;;;;;;;;;;21.90;99.90;;;;;;4970464;28;19940;-72
2023/12/22 10:52:34;;;;;;;;;;;21.90;99.90;;;;;;4971568;28;20363;-70
2023/12/22 10:55:02;;;;;;;;;;;21.90;99.90;;;;;;4970283;28;19987;-73
2023/12/22 10:57:29;;;;;;;;;;;21.90;99.90;;;;;;4971404;28;19920;-73
2023/12/22 10:59:57;;;;;;;;;;;22.00;99.90;;;;;;4971537;28;19964;-76
2023/12/22 11:02:27;;;;;;;;;;;22.00;99.90;;;;;;4971505;28;19949;-70
2023/12/22 11:05:08;;;;;;;;;;;22.10;99.90;;;;;;4971371;28;19914;-71
2023/12/22 11:07:35;;;;;;;;;;;21.90;99.90;;;;;;4971987;28;20371;-74
2023/12/22 11:10:06;;;;;;;;;;;22.00;99.90;;;;;;4971411;28;20009;-70
2023/12/22 11:12:36;;;;;;;;;;;21.90;99.90;;;;;;4968495;28;19975;-69
2023/12/22 11:15:06;;;;;;;;;;;21.90;99.90;;;;;;4971867;28;20025;-69
2023/12/22 11:17:36;;;;;;;;;;;21.90;99.90;;;;;;4970577;28;20048;-72
2023/12/22 11:20:03;;;;;;;;;;;21.80;99.90;;;;;;4971713;28;19910;-69
2023/12/22 11:22:32;;;;;;;;;;;21.90;99.90;;;;;;4971560;28;19928;-70
2023/12/22 11:24:59;;;;;;;;;;;21.90;99.90;;;;;;4971815;28;20387;-70
2023/12/22 11:27:26;;;;;;;;;;;21.80;99.90;;;;;;4971833;28;20001;-70
2023/12/22 11:29:54;;;;;;;;;;;21.80;99.90;;;;;;4972178;28;19915;-71
2023/12/22 11:32:20;;;;;;;;;;;21.70;99.90;;;;;;4971446;28;19914;-71
2023/12/22 11:34:47;;;;;;;;;;;21.70;99.90;;;;;;4971848;28;19925;-71
2023/12/22 11:37:15;;;;;;;;;;;21.70;99.90;;;;;;4972507;28;19964;-71
2023/12/22 11:39:42;;;;;;;;;;;21.70;99.90;;;;;;4972224;28;19937;-71
2023/12/22 11:42:14;;;;;;;;;;;21.70;99.90;;;;;;4971711;28;19968;-69
2023/12/22 11:44:41;;;;;;;;;;;21.70;99.90;;;;;;4972071;28;19910;-71
2023/12/22 11:47:09;;;;;;;;;;;21.60;99.90;;;;;;4971643;28;19911;-68
2023/12/22 11:49:36;;;;;;;;;;;21.60;99.90;;;;;;4970947;28;19914;-70
2023/12/22 11:52:12;;;;;;;;;;;21.60;99.90;;;;;;4971349;28;19914;-69
2023/12/22 11:54:49;;;;;;;;;;;21.60;99.90;;;;;;4966989;28;19922;-69
2023/12/22 11:57:28;;;;;;;;;;;21.60;99.90;;;;;;4971649;28;19937;-69
2023/12/22 11:59:58;;;;;;;;;;;21.60;99.90;;;;;;4971072;28;20371;-70
2023/12/22 12:02:26;;;;;;;;;;;21.70;99.90;;;;;;4971297;28;20395;-73
2023/12/22 12:04:53;;;;;;;;;;;21.60;99.90;;;;;;4971485;28;19915;-69
2023/12/22 12:07:41;;;;;;;;;;;21.60;99.90;;;;;;4971359;28;19945;-69
2023/12/22 12:10:12;;;;;;;;;;;21.60;99.90;;;;;;4971516;28;19918;-69
2023/12/22 12:12:38;;;;;;;;;;;21.70;99.90;;;;;;4971375;28;20341;-69
2023/12/22 12:15:09;;;;;;;;;;;21.70;99.90;;;;;;4971471;28;19918;-69
2023/12/22 12:17:41;;;;;;;;;;;21.70;99.90;;;;;;4971430;28;20374;-69
2023/12/22 12:20:09;;;;;;;;;;;21.70;99.90;;;;;;4971464;28;20005;-70
2023/12/22 12:22:38;;;;;;;;;;;21.70;99.90;;;;;;4970919;28;20306;-70
2023/12/22 12:25:11;;;;;;;;;;;21.70;99.90;;;;;;4971575;28;19917;-68
2023/12/22 12:27:39;;;;;;;;;;;21.60;99.90;;;;;;4971591;28;19914;-70
2023/12/22 12:30:11;;;;;;;;;;;21.60;99.90;;;;;;4970929;28;20358;-69
2023/12/22 12:32:37;;;;;;;;;;;21.60;99.90;;;;;;4970655;28;19918;-69
2023/12/22 12:35:04;;;;;;;;;;;21.50;99.90;;;;;;4971184;28;19918;-70
2023/12/22 12:37:32;;;;;;;;;;;21.50;99.90;;;;;;4971065;28;19918;-70
2023/12/22 12:40:03;;;;;;;;;;;21.50;99.90;;;;;;4971191;28;19910;-71
2023/12/22 12:42:31;;;;;;;;;;;21.50;99.90;;;;;;4970033;28;20401;-72
2023/12/22 12:44:57;;;;;;;;;;;21.50;99.90;;;;;;4971396;28;19914;-70
2023/12/22 12:47:24;;;;;;;;;;;21.40;99.90;;;;;;4971246;28;19961;-69
2023/12/22 12:50:00;;;;;;;;;;;21.40;99.90;;;;;;4970915;28;19999;-69
2023/12/22 12:52:27;;;;;;;;;;;21.50;99.90;;;;;;4958401;28;19976;-71
2023/12/22 12:54:55;;;;;;;;;;;21.50;99.90;;;;;;4951606;28;19918;-71
2023/12/22 12:57:22;;;;;;;;;;;21.50;99.90;;;;;;4950615;28;20287;-70
2023/12/22 12:59:49;;;;;;;;;;;21.50;99.90;;;;;;4951539;28;19922;-70
2023/12/22 13:02:23;;;;;;;;;;;21.60;99.90;;;;;;4951585;28;19914;-72
2023/12/22 13:04:50;;;;;;;;;;;21.60;99.90;;;;;;4951340;28;20546;-70
2023/12/22 13:07:26;;;;;;;;;;;21.50;99.90;;;;;;5015197;28;19908;-69
2023/12/22 13:09:54;;;;;;;;;;;21.60;99.90;;;;;;5052552;28;19982;-70
2023/12/22 13:12:20;;;;;;;;;;;21.50;99.90;;;;;;5004066;28;19936;-71
2023/12/22 13:14:47;;;;;;;;;;;21.50;99.90;;;;;;4970579;28;19968;-69
2023/12/22 13:17:14;;;;;;;;;;;21.40;99.90;;;;;;4970843;28;19918;-69
2023/12/22 13:19:41;;;;;;;;;;;21.40;99.90;;;;;;4970989;28;20363;-70
2023/12/22 13:22:08;;;;;;;;;;;21.30;99.90;;;;;;4973511;28;19922;-70
2023/12/22 13:24:35;;;;;;;;;;;21.20;99.90;;;;;;4973624;28;20004;-69
2023/12/22 13:27:03;;;;;;;;;;;21.20;99.90;;;;;;4954748;28;19972;-69
2023/12/22 13:29:30;;;;;;;;;;;21.20;99.90;;;;;;4954854;28;19942;-70
2023/12/22 13:31:57;;;;;;;;;;;21.10;99.90;;;;;;4954531;28;19915;-69
2023/12/22 13:34:25;;;;;;;;;;;21.10;99.90;;;;;;4955079;28;19919;-71
2023/12/22 13:36:51;;;;;;;;;;;21.00;99.90;;;;;;4955019;28;19910;-69
2023/12/22 13:39:18;;;;;;;;;;;21.00;99.90;;;;;;4954621;28;19956;-69
2023/12/22 13:41:48;;;;;;;;;;;20.90;99.90;;;;;;4954541;28;19936;-70
2023/12/22 13:44:15;;;;;;;;;;;20.90;99.90;;;;;;4954522;29;19942;-69
2023/12/22 13:46:42;;;;;;;;;;;20.90;99.90;;;;;;4954520;28;19915;-69
2023/12/22 13:49:10;;;;;;;;;;;20.90;99.90;;;;;;4954640;28;19918;-69
2023/12/22 13:51:49;;;;;;;;;;;20.90;99.90;;;;;;4954342;28;19910;-68
2023/12/22 13:54:15;;;;;;;;;;;20.90;99.90;;;;;;4954049;28;19922;-69
2023/12/22 13:56:43;;;;;;;;;;;20.90;99.90;;;;;;4954075;28;19910;-69
2023/12/22 13:59:10;;;;;;;;;;;20.80;99.90;;;;;;4954242;28;19964;-69
2023/12/22 14:01:37;;;;;;;;;;;20.70;99.90;;;;;;4953702;28;20290;-68
2023/12/22 14:04:05;;;;;;;;;;;20.80;99.90;;;;;;4954170;28;19993;-69
2023/12/22 14:06:31;;;;;;;;;;;20.80;99.90;;;;;;4954145;28;20005;-71
2023/12/22 14:08:58;;;;;;;;;;;20.80;99.90;;;;;;4954057;28;19910;-71
2023/12/22 14:11:24;;;;;;;;;;;20.70;99.90;;;;;;4954249;28;19911;-70
2023/12/22 14:13:51;;;;;;;;;;;20.70;99.90;;;;;;4952779;28;20303;-70
2023/12/22 14:16:18;;;;;;;;;;;20.70;99.90;;;;;;4953967;29;20352;-70
2023/12/22 14:18:45;;;;;;;;;;;20.80;99.90;;;;;;4954024;28;20364;-69